sensor_id;sensor_type;location;lat;lon;timestamp;P1;durP1;ratioP1;P2;durP2;ratioP2
12112;SDS011;6120;52.250;8.478;2024-02-14T00:02:04;6.75;;;3.47;;
12112;SDS011;6120;52.250;8.478;2024-02-14T00:04:32;12.05;;;3.30;;
12112;SDS011;6120;52.250;8.478;2024-02-14T00:06:59;6.40;;;3.40;;
12112;SDS011;6120;52.250;8.478;2024-02-14T00:09:25;6.90;;;3.67;;
12112;SDS011;6120;52.250;8.478;2024-02-14T00:11:52;9.95;;;3.55;;
12112;SDS011;6120;52.250;8.478;2024-02-14T00:14:19;7.22;;;3.90;;
12112;SDS011;6120;52.250;8.478;2024-02-14T00:16:46;8.18;;;3.03;;
12112;SDS011;6120;52.250;8.478;2024-02-14T00:19:13;8.07;;;3.85;;
12112;SDS011;6120;52.250;8.478;2024-02-14T00:21:40;7.95;;;3.78;;
12112;SDS011;6120;52.250;8.478;2024-02-14T00:24:07;8.25;;;3.72;;
12112;SDS011;6120;52.250;8.478;2024-02-14T00:26:34;6.63;;;3.65;;
12112;SDS011;6120;52.250;8.478;2024-02-14T00:29:01;6.20;;;3.78;;
12112;SDS011;6120;52.250;8.478;2024-02-14T00:31:29;10.07;;;3.75;;
12112;SDS011;6120;52.250;8.478;2024-02-14T00:33:55;8.48;;;3.65;;
12112;SDS011;6120;52.250;8.478;2024-02-14T00:36:22;7.32;;;3.58;;
12112;SDS011;6120;52.250;8.478;2024-02-14T00:38:49;6.53;;;3.70;;
12112;SDS011;6120;52.250;8.478;2024-02-14T00:41:16;7.57;;;3.35;;
12112;SDS011;6120;52.250;8.478;2024-02-14T00:43:43;6.57;;;4.00;;
12112;SDS011;6120;52.250;8.478;2024-02-14T00:46:15;6.40;;;3.35;;
12112;SDS011;6120;52.250;8.478;2024-02-14T00:48:44;7.88;;;3.80;;
12112;SDS011;6120;52.250;8.478;2024-02-14T00:51:11;7.45;;;3.40;;
12112;SDS011;6120;52.250;8.478;2024-02-14T00:53:38;7.50;;;3.70;;
12112;SDS011;6120;52.250;8.478;2024-02-14T00:56:05;9.52;;;3.60;;
12112;SDS011;6120;52.250;8.478;2024-02-14T00:58:32;6.07;;;3.10;;
12112;SDS011;6120;52.250;8.478;2024-02-14T01:00:59;9.10;;;3.50;;
12112;SDS011;6120;52.250;8.478;2024-02-14T01:03:26;6.13;;;3.50;;
12112;SDS011;6120;52.250;8.478;2024-02-14T01:05:52;6.97;;;3.08;;
12112;SDS011;6120;52.250;8.478;2024-02-14T01:08:19;8.30;;;3.67;;
12112;SDS011;6120;52.250;8.478;2024-02-14T01:10:47;8.23;;;3.35;;
12112;SDS011;6120;52.250;8.478;2024-02-14T01:13:15;4.78;;;3.15;;
12112;SDS011;6120;52.250;8.478;2024-02-14T01:15:41;6.43;;;3.30;;
12112;SDS011;6120;52.250;8.478;2024-02-14T01:18:08;7.80;;;3.33;;
12112;SDS011;6120;52.250;8.478;2024-02-14T01:20:37;5.15;;;3.20;;
12112;SDS011;6120;52.250;8.478;2024-02-14T01:23:03;8.07;;;3.78;;
12112;SDS011;6120;52.250;8.478;2024-02-14T01:25:31;9.37;;;4.00;;
12112;SDS011;6120;52.250;8.478;2024-02-14T01:27:59;6.75;;;3.53;;
12112;SDS011;6120;52.250;8.478;2024-02-14T01:30:26;7.85;;;3.70;;
12112;SDS011;6120;52.250;8.478;2024-02-14T01:32:53;6.82;;;2.95;;
12112;SDS011;6120;52.250;8.478;2024-02-14T01:35:20;6.50;;;3.27;;
12112;SDS011;6120;52.250;8.478;2024-02-14T01:37:47;4.95;;;3.03;;
12112;SDS011;6120;52.250;8.478;2024-02-14T01:40:14;9.45;;;4.45;;
12112;SDS011;6120;52.250;8.478;2024-02-14T01:42:41;5.97;;;2.90;;
12112;SDS011;6120;52.250;8.478;2024-02-14T01:45:08;7.97;;;3.08;;
12112;SDS011;6120;52.250;8.478;2024-02-14T01:47:35;6.55;;;3.22;;
12112;SDS011;6120;52.250;8.478;2024-02-14T01:50:01;7.80;;;3.63;;
12112;SDS011;6120;52.250;8.478;2024-02-14T01:52:30;7.60;;;3.17;;
12112;SDS011;6120;52.250;8.478;2024-02-14T01:54:57;10.10;;;3.63;;
12112;SDS011;6120;52.250;8.478;2024-02-14T01:57:25;6.53;;;3.05;;
12112;SDS011;6120;52.250;8.478;2024-02-14T01:59:51;7.30;;;3.33;;
12112;SDS011;6120;52.250;8.478;2024-02-14T02:02:19;6.57;;;3.30;;
12112;SDS011;6120;52.250;8.478;2024-02-14T02:04:47;7.85;;;3.72;;
12112;SDS011;6120;52.250;8.478;2024-02-14T02:07:13;9.60;;;3.33;;
12112;SDS011;6120;52.250;8.478;2024-02-14T02:09:40;8.02;;;3.47;;
12112;SDS011;6120;52.250;8.478;2024-02-14T02:12:07;9.85;;;3.45;;
12112;SDS011;6120;52.250;8.478;2024-02-14T02:14:34;8.65;;;3.95;;
12112;SDS011;6120;52.250;8.478;2024-02-14T02:17:01;5.50;;;3.38;;
12112;SDS011;6120;52.250;8.478;2024-02-14T02:19:28;5.70;;;3.08;;
12112;SDS011;6120;52.250;8.478;2024-02-14T02:21:55;6.85;;;3.15;;
12112;SDS011;6120;52.250;8.478;2024-02-14T02:24:22;7.95;;;3.10;;
12112;SDS011;6120;52.250;8.478;2024-02-14T02:26:48;6.07;;;3.33;;
12112;SDS011;6120;52.250;8.478;2024-02-14T02:29:15;7.40;;;3.00;;
12112;SDS011;6120;52.250;8.478;2024-02-14T02:31:43;11.23;;;4.03;;
12112;SDS011;6120;52.250;8.478;2024-02-14T02:34:09;6.20;;;3.03;;
12112;SDS011;6120;52.250;8.478;2024-02-14T02:36:37;11.68;;;3.85;;
12112;SDS011;6120;52.250;8.478;2024-02-14T02:39:05;7.67;;;3.47;;
12112;SDS011;6120;52.250;8.478;2024-02-14T02:41:32;6.80;;;3.17;;
12112;SDS011;6120;52.250;8.478;2024-02-14T02:43:59;7.10;;;3.63;;
12112;SDS011;6120;52.250;8.478;2024-02-14T02:46:27;9.20;;;3.75;;
12112;SDS011;6120;52.250;8.478;2024-02-14T02:48:55;8.15;;;3.63;;
12112;SDS011;6120;52.250;8.478;2024-02-14T02:51:25;10.73;;;3.58;;
12112;SDS011;6120;52.250;8.478;2024-02-14T02:53:51;8.38;;;3.65;;
12112;SDS011;6120;52.250;8.478;2024-02-14T02:56:18;6.22;;;3.30;;
12112;SDS011;6120;52.250;8.478;2024-02-14T02:58:45;8.00;;;3.67;;
12112;SDS011;6120;52.250;8.478;2024-02-14T03:01:12;6.93;;;2.83;;
12112;SDS011;6120;52.250;8.478;2024-02-14T03:03:39;7.60;;;3.25;;
12112;SDS011;6120;52.250;8.478;2024-02-14T03:06:07;6.88;;;3.20;;
12112;SDS011;6120;52.250;8.478;2024-02-14T03:08:34;5.60;;;2.85;;
12112;SDS011;6120;52.250;8.478;2024-02-14T03:11:03;8.70;;;3.10;;
12112;SDS011;6120;52.250;8.478;2024-02-14T03:13:31;6.60;;;3.38;;
12112;SDS011;6120;52.250;8.478;2024-02-14T03:15:58;8.52;;;3.42;;
12112;SDS011;6120;52.250;8.478;2024-02-14T03:18:24;7.57;;;3.45;;
12112;SDS011;6120;52.250;8.478;2024-02-14T03:20:51;9.77;;;3.47;;
12112;SDS011;6120;52.250;8.478;2024-02-14T03:25:46;9.05;;;3.90;;
12112;SDS011;6120;52.250;8.478;2024-02-14T03:28:14;9.38;;;3.78;;
12112;SDS011;6120;52.250;8.478;2024-02-14T03:30:41;7.43;;;3.65;;
12112;SDS011;6120;52.250;8.478;2024-02-14T03:33:07;5.82;;;3.55;;
12112;SDS011;6120;52.250;8.478;2024-02-14T03:35:35;8.60;;;3.85;;
12112;SDS011;6120;52.250;8.478;2024-02-14T03:38:02;6.10;;;3.80;;
12112;SDS011;6120;52.250;8.478;2024-02-14T03:40:29;8.00;;;3.97;;
12112;SDS011;6120;52.250;8.478;2024-02-14T03:42:56;6.22;;;3.33;;
12112;SDS011;6120;52.250;8.478;2024-02-14T03:45:23;7.53;;;3.58;;
12112;SDS011;6120;52.250;8.478;2024-02-14T03:47:50;10.55;;;3.70;;
12112;SDS011;6120;52.250;8.478;2024-02-14T03:50:17;7.40;;;3.80;;
12112;SDS011;6120;52.250;8.478;2024-02-14T03:52:43;8.18;;;3.75;;
12112;SDS011;6120;52.250;8.478;2024-02-14T03:55:10;8.10;;;3.75;;
12112;SDS011;6120;52.250;8.478;2024-02-14T03:57:40;10.57;;;3.47;;
12112;SDS011;6120;52.250;8.478;2024-02-14T04:00:07;7.07;;;3.17;;
12112;SDS011;6120;52.250;8.478;2024-02-14T04:02:35;9.43;;;3.85;;
12112;SDS011;6120;52.250;8.478;2024-02-14T04:05:05;6.40;;;2.67;;
12112;SDS011;6120;52.250;8.478;2024-02-14T04:07:33;7.28;;;3.33;;
12112;SDS011;6120;52.250;8.478;2024-02-14T04:10:04;6.35;;;3.60;;
12112;SDS011;6120;52.250;8.478;2024-02-14T04:12:31;7.90;;;3.40;;
12112;SDS011;6120;52.250;8.478;2024-02-14T04:14:58;6.43;;;3.67;;
12112;SDS011;6120;52.250;8.478;2024-02-14T04:17:25;11.02;;;4.50;;
12112;SDS011;6120;52.250;8.478;2024-02-14T04:19:51;9.88;;;4.43;;
12112;SDS011;6120;52.250;8.478;2024-02-14T04:22:18;7.75;;;3.85;;
12112;SDS011;6120;52.250;8.478;2024-02-14T04:24:45;9.45;;;4.47;;
12112;SDS011;6120;52.250;8.478;2024-02-14T04:27:12;6.95;;;4.60;;
12112;SDS011;6120;52.250;8.478;2024-02-14T04:29:39;11.27;;;5.47;;
12112;SDS011;6120;52.250;8.478;2024-02-14T04:32:05;12.80;;;5.38;;
12112;SDS011;6120;52.250;8.478;2024-02-14T04:34:32;10.00;;;6.00;;
12112;SDS011;6120;52.250;8.478;2024-02-14T04:36:59;10.25;;;6.43;;
12112;SDS011;6120;52.250;8.478;2024-02-14T04:39:26;11.80;;;6.25;;
12112;SDS011;6120;52.250;8.478;2024-02-14T04:41:52;12.35;;;6.40;;
12112;SDS011;6120;52.250;8.478;2024-02-14T04:44:31;14.23;;;7.15;;
12112;SDS011;6120;52.250;8.478;2024-02-14T04:46:58;15.18;;;7.40;;
12112;SDS011;6120;52.250;8.478;2024-02-14T04:49:26;13.13;;;7.17;;
12112;SDS011;6120;52.250;8.478;2024-02-14T04:51:53;15.70;;;7.65;;
12112;SDS011;6120;52.250;8.478;2024-02-14T04:54:20;15.05;;;8.00;;
12112;SDS011;6120;52.250;8.478;2024-02-14T04:56:47;14.55;;;7.05;;
12112;SDS011;6120;52.250;8.478;2024-02-14T04:59:20;15.82;;;8.93;;
12112;SDS011;6120;52.250;8.478;2024-02-14T05:01:47;14.07;;;8.23;;
12112;SDS011;6120;52.250;8.478;2024-02-14T05:04:14;16.83;;;9.40;;
12112;SDS011;6120;52.250;8.478;2024-02-14T05:06:43;20.38;;;9.90;;
12112;SDS011;6120;52.250;8.478;2024-02-14T05:09:10;17.52;;;9.43;;
12112;SDS011;6120;52.250;8.478;2024-02-14T05:11:41;17.35;;;9.73;;
12112;SDS011;6120;52.250;8.478;2024-02-14T05:14:08;18.00;;;9.80;;
12112;SDS011;6120;52.250;8.478;2024-02-14T05:16:35;16.85;;;10.30;;
12112;SDS011;6120;52.250;8.478;2024-02-14T05:19:01;20.02;;;10.65;;
12112;SDS011;6120;52.250;8.478;2024-02-14T05:21:28;18.48;;;9.73;;
12112;SDS011;6120;52.250;8.478;2024-02-14T05:23:56;19.85;;;10.30;;
12112;SDS011;6120;52.250;8.478;2024-02-14T05:26:23;17.85;;;10.20;;
12112;SDS011;6120;52.250;8.478;2024-02-14T05:28:49;17.98;;;10.13;;
12112;SDS011;6120;52.250;8.478;2024-02-14T05:31:16;14.63;;;9.05;;
12112;SDS011;6120;52.250;8.478;2024-02-14T05:33:43;18.38;;;9.82;;
12112;SDS011;6120;52.250;8.478;2024-02-14T05:36:10;18.88;;;10.00;;
12112;SDS011;6120;52.250;8.478;2024-02-14T05:38:36;16.35;;;9.00;;
12112;SDS011;6120;52.250;8.478;2024-02-14T05:41:03;17.42;;;10.13;;
12112;SDS011;6120;52.250;8.478;2024-02-14T05:43:30;14.93;;;8.68;;
12112;SDS011;6120;52.250;8.478;2024-02-14T05:45:57;15.80;;;9.38;;
12112;SDS011;6120;52.250;8.478;2024-02-14T05:48:24;16.58;;;9.10;;
12112;SDS011;6120;52.250;8.478;2024-02-14T05:50:50;15.48;;;9.25;;
12112;SDS011;6120;52.250;8.478;2024-02-14T05:53:17;15.25;;;9.00;;
12112;SDS011;6120;52.250;8.478;2024-02-14T05:55:44;16.52;;;8.95;;
12112;SDS011;6120;52.250;8.478;2024-02-14T05:58:11;12.98;;;8.73;;
12112;SDS011;6120;52.250;8.478;2024-02-14T06:00:38;19.75;;;8.98;;
12112;SDS011;6120;52.250;8.478;2024-02-14T06:03:05;18.65;;;9.00;;
12112;SDS011;6120;52.250;8.478;2024-02-14T06:05:34;14.13;;;8.50;;
12112;SDS011;6120;52.250;8.478;2024-02-14T06:08:01;19.15;;;9.40;;
12112;SDS011;6120;52.250;8.478;2024-02-14T06:10:29;14.65;;;9.60;;
12112;SDS011;6120;52.250;8.478;2024-02-14T06:12:56;17.83;;;9.95;;
12112;SDS011;6120;52.250;8.478;2024-02-14T06:15:23;21.55;;;11.10;;
12112;SDS011;6120;52.250;8.478;2024-02-14T06:17:50;17.38;;;10.18;;
12112;SDS011;6120;52.250;8.478;2024-02-14T06:20:17;17.38;;;10.40;;
12112;SDS011;6120;52.250;8.478;2024-02-14T06:22:44;16.92;;;10.10;;
12112;SDS011;6120;52.250;8.478;2024-02-14T06:25:22;21.25;;;10.80;;
12112;SDS011;6120;52.250;8.478;2024-02-14T06:27:49;18.15;;;10.43;;
12112;SDS011;6120;52.250;8.478;2024-02-14T06:30:16;18.58;;;10.43;;
12112;SDS011;6120;52.250;8.478;2024-02-14T06:32:44;16.60;;;10.43;;
12112;SDS011;6120;52.250;8.478;2024-02-14T06:35:11;18.40;;;10.82;;
12112;SDS011;6120;52.250;8.478;2024-02-14T06:37:41;20.08;;;10.48;;
12112;SDS011;6120;52.250;8.478;2024-02-14T06:40:21;21.02;;;11.40;;
12112;SDS011;6120;52.250;8.478;2024-02-14T06:42:48;19.95;;;10.95;;
12112;SDS011;6120;52.250;8.478;2024-02-14T06:47:43;18.13;;;10.52;;
12112;SDS011;6120;52.250;8.478;2024-02-14T06:50:10;20.58;;;11.45;;
12112;SDS011;6120;52.250;8.478;2024-02-14T06:52:37;18.35;;;11.60;;
12112;SDS011;6120;52.250;8.478;2024-02-14T06:55:04;20.17;;;11.88;;
12112;SDS011;6120;52.250;8.478;2024-02-14T06:57:30;20.63;;;11.95;;
12112;SDS011;6120;52.250;8.478;2024-02-14T06:59:57;21.83;;;12.68;;
12112;SDS011;6120;52.250;8.478;2024-02-14T07:02:24;22.15;;;12.80;;
12112;SDS011;6120;52.250;8.478;2024-02-14T07:04:54;30.75;;;15.35;;
12112;SDS011;6120;52.250;8.478;2024-02-14T07:07:21;23.27;;;13.55;;
12112;SDS011;6120;52.250;8.478;2024-02-14T07:09:48;27.55;;;14.70;;
12112;SDS011;6120;52.250;8.478;2024-02-14T07:12:14;27.45;;;14.68;;
12112;SDS011;6120;52.250;8.478;2024-02-14T07:14:41;29.33;;;14.93;;
12112;SDS011;6120;52.250;8.478;2024-02-14T07:17:08;33.75;;;16.63;;
12112;SDS011;6120;52.250;8.478;2024-02-14T07:19:35;33.53;;;16.17;;
12112;SDS011;6120;52.250;8.478;2024-02-14T07:22:03;32.45;;;16.50;;
12112;SDS011;6120;52.250;8.478;2024-02-14T07:24:30;34.28;;;17.55;;
12112;SDS011;6120;52.250;8.478;2024-02-14T07:26:57;34.92;;;18.10;;
12112;SDS011;6120;52.250;8.478;2024-02-14T07:29:24;42.92;;;21.00;;
12112;SDS011;6120;52.250;8.478;2024-02-14T07:31:52;41.92;;;19.63;;
12112;SDS011;6120;52.250;8.478;2024-02-14T07:34:18;49.72;;;23.92;;
12112;SDS011;6120;52.250;8.478;2024-02-14T07:36:46;43.22;;;22.25;;
12112;SDS011;6120;52.250;8.478;2024-02-14T07:39:12;54.80;;;25.17;;
12112;SDS011;6120;52.250;8.478;2024-02-14T07:41:39;55.40;;;26.08;;
12112;SDS011;6120;52.250;8.478;2024-02-14T07:44:06;64.50;;;28.52;;
12112;SDS011;6120;52.250;8.478;2024-02-14T07:46:33;63.13;;;28.70;;
12112;SDS011;6120;52.250;8.478;2024-02-14T07:49:00;67.97;;;29.63;;
12112;SDS011;6120;52.250;8.478;2024-02-14T07:51:27;61.35;;;28.77;;
12112;SDS011;6120;52.250;8.478;2024-02-14T07:53:55;68.25;;;29.52;;
12112;SDS011;6120;52.250;8.478;2024-02-14T07:56:22;70.03;;;29.35;;
12112;SDS011;6120;52.250;8.478;2024-02-14T07:58:48;64.38;;;28.88;;
12112;SDS011;6120;52.250;8.478;2024-02-14T08:01:16;66.72;;;30.33;;
12112;SDS011;6120;52.250;8.478;2024-02-14T08:03:43;76.05;;;31.77;;
12112;SDS011;6120;52.250;8.478;2024-02-14T08:06:13;76.45;;;30.63;;
12112;SDS011;6120;52.250;8.478;2024-02-14T08:08:40;78.78;;;32.92;;
12112;SDS011;6120;52.250;8.478;2024-02-14T08:11:07;79.03;;;32.88;;
12112;SDS011;6120;52.250;8.478;2024-02-14T08:13:34;69.03;;;30.95;;
12112;SDS011;6120;52.250;8.478;2024-02-14T08:16:00;78.88;;;32.45;;
12112;SDS011;6120;52.250;8.478;2024-02-14T08:18:27;82.47;;;32.20;;
12112;SDS011;6120;52.250;8.478;2024-02-14T08:20:54;74.20;;;32.40;;
12112;SDS011;6120;52.250;8.478;2024-02-14T08:23:21;71.95;;;29.92;;
12112;SDS011;6120;52.250;8.478;2024-02-14T08:25:48;82.70;;;32.35;;
12112;SDS011;6120;52.250;8.478;2024-02-14T08:28:15;72.75;;;31.40;;
12112;SDS011;6120;52.250;8.478;2024-02-14T08:30:44;75.30;;;32.55;;
12112;SDS011;6120;52.250;8.478;2024-02-14T08:33:11;64.53;;;29.38;;
12112;SDS011;6120;52.250;8.478;2024-02-14T08:35:38;82.13;;;32.70;;
12112;SDS011;6120;52.250;8.478;2024-02-14T08:38:09;66.60;;;30.23;;
12112;SDS011;6120;52.250;8.478;2024-02-14T08:40:36;78.30;;;32.42;;
12112;SDS011;6120;52.250;8.478;2024-02-14T08:43:03;91.72;;;32.90;;
12112;SDS011;6120;52.250;8.478;2024-02-14T08:45:31;86.50;;;31.05;;
12112;SDS011;6120;52.250;8.478;2024-02-14T08:47:58;73.50;;;31.92;;
12112;SDS011;6120;52.250;8.478;2024-02-14T08:50:25;77.03;;;32.72;;
12112;SDS011;6120;52.250;8.478;2024-02-14T08:52:51;81.28;;;32.92;;
12112;SDS011;6120;52.250;8.478;2024-02-14T08:55:18;85.65;;;34.40;;
12112;SDS011;6120;52.250;8.478;2024-02-14T08:57:45;80.28;;;31.20;;
12112;SDS011;6120;52.250;8.478;2024-02-14T09:00:14;77.60;;;32.20;;
12112;SDS011;6120;52.250;8.478;2024-02-14T09:02:46;90.72;;;32.10;;
12112;SDS011;6120;52.250;8.478;2024-02-14T09:05:13;84.57;;;31.45;;
12112;SDS011;6120;52.250;8.478;2024-02-14T09:07:40;88.13;;;32.33;;
12112;SDS011;6120;52.250;8.478;2024-02-14T09:10:08;81.82;;;31.60;;
12112;SDS011;6120;52.250;8.478;2024-02-14T09:15:04;89.30;;;31.30;;
12112;SDS011;6120;52.250;8.478;2024-02-14T09:17:31;73.70;;;28.67;;
12112;SDS011;6120;52.250;8.478;2024-02-14T09:19:58;79.18;;;30.77;;
12112;SDS011;6120;52.250;8.478;2024-02-14T09:22:25;73.00;;;29.17;;
12112;SDS011;6120;52.250;8.478;2024-02-14T09:24:52;79.85;;;30.48;;
12112;SDS011;6120;52.250;8.478;2024-02-14T09:27:19;72.70;;;27.85;;
12112;SDS011;6120;52.250;8.478;2024-02-14T09:29:46;72.57;;;27.98;;
12112;SDS011;6120;52.250;8.478;2024-02-14T09:32:13;65.53;;;26.95;;
12112;SDS011;6120;52.250;8.478;2024-02-14T09:34:43;54.28;;;25.05;;
12112;SDS011;6120;52.250;8.478;2024-02-14T09:37:09;60.42;;;26.00;;
12112;SDS011;6120;52.250;8.478;2024-02-14T09:39:36;66.15;;;27.33;;
12112;SDS011;6120;52.250;8.478;2024-02-14T09:42:06;63.45;;;24.63;;
12112;SDS011;6120;52.250;8.478;2024-02-14T09:44:35;56.88;;;23.80;;
12112;SDS011;6120;52.250;8.478;2024-02-14T09:47:07;55.85;;;24.55;;
12112;SDS011;6120;52.250;8.478;2024-02-14T09:49:34;64.70;;;24.35;;
12112;SDS011;6120;52.250;8.478;2024-02-14T09:54:30;61.95;;;25.40;;
12112;SDS011;6120;52.250;8.478;2024-02-14T09:56:58;64.22;;;24.90;;
12112;SDS011;6120;52.250;8.478;2024-02-14T09:59:24;61.67;;;25.88;;
12112;SDS011;6120;52.250;8.478;2024-02-14T10:01:51;66.00;;;26.25;;
12112;SDS011;6120;52.250;8.478;2024-02-14T10:04:18;57.83;;;24.83;;
12112;SDS011;6120;52.250;8.478;2024-02-14T10:06:48;59.35;;;26.00;;
12112;SDS011;6120;52.250;8.478;2024-02-14T10:09:22;60.95;;;25.27;;
12112;SDS011;6120;52.250;8.478;2024-02-14T10:11:49;59.67;;;23.33;;
12112;SDS011;6120;52.250;8.478;2024-02-14T10:14:17;57.20;;;24.50;;
12112;SDS011;6120;52.250;8.478;2024-02-14T10:16:45;50.67;;;22.25;;
12112;SDS011;6120;52.250;8.478;2024-02-14T10:19:15;59.47;;;24.17;;
12112;SDS011;6120;52.250;8.478;2024-02-14T10:21:44;57.28;;;23.90;;
12112;SDS011;6120;52.250;8.478;2024-02-14T10:24:29;57.42;;;22.75;;
12112;SDS011;6120;52.250;8.478;2024-02-14T10:27:00;54.50;;;23.27;;
12112;SDS011;6120;52.250;8.478;2024-02-14T10:29:27;58.17;;;22.58;;
12112;SDS011;6120;52.250;8.478;2024-02-14T10:31:54;56.03;;;22.60;;
12112;SDS011;6120;52.250;8.478;2024-02-14T10:34:24;53.08;;;22.00;;
12112;SDS011;6120;52.250;8.478;2024-02-14T10:36:52;53.55;;;23.23;;
12112;SDS011;6120;52.250;8.478;2024-02-14T10:39:19;52.37;;;22.70;;
12112;SDS011;6120;52.250;8.478;2024-02-14T10:41:45;58.33;;;23.58;;
12112;SDS011;6120;52.250;8.478;2024-02-14T10:44:12;57.85;;;24.50;;
12112;SDS011;6120;52.250;8.478;2024-02-14T10:46:40;61.30;;;24.70;;
12112;SDS011;6120;52.250;8.478;2024-02-14T10:49:07;68.05;;;25.25;;
12112;SDS011;6120;52.250;8.478;2024-02-14T10:51:35;65.03;;;25.88;;
12112;SDS011;6120;52.250;8.478;2024-02-14T10:54:07;62.38;;;26.08;;
12112;SDS011;6120;52.250;8.478;2024-02-14T10:56:41;71.78;;;28.40;;
12112;SDS011;6120;52.250;8.478;2024-02-14T10:59:13;67.47;;;27.98;;
12112;SDS011;6120;52.250;8.478;2024-02-14T11:01:42;75.97;;;29.42;;
12112;SDS011;6120;52.250;8.478;2024-02-14T11:04:09;75.88;;;30.08;;
12112;SDS011;6120;52.250;8.478;2024-02-14T11:06:45;82.38;;;30.73;;
12112;SDS011;6120;52.250;8.478;2024-02-14T11:09:19;83.43;;;31.02;;
12112;SDS011;6120;52.250;8.478;2024-02-14T11:11:46;78.28;;;31.30;;
12112;SDS011;6120;52.250;8.478;2024-02-14T11:14:14;77.57;;;31.48;;
12112;SDS011;6120;52.250;8.478;2024-02-14T11:16:48;80.68;;;31.70;;
12112;SDS011;6120;52.250;8.478;2024-02-14T11:19:15;89.30;;;32.63;;
12112;SDS011;6120;52.250;8.478;2024-02-14T11:21:44;78.72;;;32.20;;
12112;SDS011;6120;52.250;8.478;2024-02-14T11:24:13;79.35;;;31.45;;
12112;SDS011;6120;52.250;8.478;2024-02-14T11:26:50;73.63;;;30.63;;
12112;SDS011;6120;52.250;8.478;2024-02-14T11:29:19;77.78;;;30.98;;
12112;SDS011;6120;52.250;8.478;2024-02-14T11:31:57;70.70;;;30.92;;
12112;SDS011;6120;52.250;8.478;2024-02-14T11:34:26;77.82;;;33.03;;
12112;SDS011;6120;52.250;8.478;2024-02-14T11:36:53;71.27;;;30.27;;
12112;SDS011;6120;52.250;8.478;2024-02-14T11:39:20;70.75;;;30.77;;
12112;SDS011;6120;52.250;8.478;2024-02-14T11:41:47;73.22;;;30.95;;
12112;SDS011;6120;52.250;8.478;2024-02-14T11:44:13;70.97;;;29.65;;
12112;SDS011;6120;52.250;8.478;2024-02-14T11:46:40;71.03;;;30.52;;
12112;SDS011;6120;52.250;8.478;2024-02-14T11:49:08;64.03;;;29.97;;
12112;SDS011;6120;52.250;8.478;2024-02-14T11:51:36;67.85;;;30.80;;
12112;SDS011;6120;52.250;8.478;2024-02-14T11:54:03;67.63;;;29.35;;
12112;SDS011;6120;52.250;8.478;2024-02-14T11:56:36;71.80;;;30.75;;
12112;SDS011;6120;52.250;8.478;2024-02-14T11:59:04;74.82;;;31.27;;
12112;SDS011;6120;52.250;8.478;2024-02-14T12:01:34;73.88;;;30.85;;
12112;SDS011;6120;52.250;8.478;2024-02-14T12:04:02;73.15;;;31.05;;
12112;SDS011;6120;52.250;8.478;2024-02-14T12:06:35;65.13;;;29.42;;
12112;SDS011;6120;52.250;8.478;2024-02-14T12:09:03;63.63;;;28.27;;
12112;SDS011;6120;52.250;8.478;2024-02-14T12:11:36;67.03;;;29.10;;
12112;SDS011;6120;52.250;8.478;2024-02-14T12:14:07;60.58;;;27.42;;
12112;SDS011;6120;52.250;8.478;2024-02-14T12:16:35;57.35;;;26.88;;
12112;SDS011;6120;52.250;8.478;2024-02-14T12:19:08;64.88;;;28.42;;
12112;SDS011;6120;52.250;8.478;2024-02-14T12:21:36;59.13;;;27.70;;
12112;SDS011;6120;52.250;8.478;2024-02-14T12:24:05;56.78;;;26.55;;
12112;SDS011;6120;52.250;8.478;2024-02-14T12:26:37;54.30;;;26.52;;
12112;SDS011;6120;52.250;8.478;2024-02-14T12:29:05;53.63;;;24.63;;
12112;SDS011;6120;52.250;8.478;2024-02-14T12:34:01;45.88;;;21.52;;
12112;SDS011;6120;52.250;8.478;2024-02-14T12:36:31;39.85;;;20.58;;
12112;SDS011;6120;52.250;8.478;2024-02-14T12:39:02;40.00;;;20.67;;
12112;SDS011;6120;52.250;8.478;2024-02-14T12:41:30;32.83;;;18.20;;
12112;SDS011;6120;52.250;8.478;2024-02-14T12:43:58;33.42;;;17.55;;
12112;SDS011;6120;52.250;8.478;2024-02-14T12:46:25;30.83;;;16.42;;
12112;SDS011;6120;52.250;8.478;2024-02-14T12:48:51;29.40;;;15.95;;
12112;SDS011;6120;52.250;8.478;2024-02-14T12:51:18;33.10;;;15.93;;
12112;SDS011;6120;52.250;8.478;2024-02-14T12:53:45;28.90;;;15.73;;
12112;SDS011;6120;52.250;8.478;2024-02-14T12:56:12;31.23;;;16.27;;
12112;SDS011;6120;52.250;8.478;2024-02-14T12:58:39;30.58;;;16.65;;
12112;SDS011;6120;52.250;8.478;2024-02-14T13:01:05;35.47;;;17.35;;
12112;SDS011;6120;52.250;8.478;2024-02-14T13:03:33;37.97;;;17.70;;
12112;SDS011;6120;52.250;8.478;2024-02-14T13:06:00;30.20;;;16.80;;
12112;SDS011;6120;52.250;8.478;2024-02-14T13:08:26;28.15;;;15.40;;
12112;SDS011;6120;52.250;8.478;2024-02-14T13:10:54;30.17;;;15.38;;
12112;SDS011;6120;52.250;8.478;2024-02-14T13:13:20;28.52;;;16.65;;
12112;SDS011;6120;52.250;8.478;2024-02-14T13:15:47;32.40;;;16.70;;
12112;SDS011;6120;52.250;8.478;2024-02-14T13:18:13;31.83;;;16.10;;
12112;SDS011;6120;52.250;8.478;2024-02-14T13:20:40;29.48;;;16.95;;
12112;SDS011;6120;52.250;8.478;2024-02-14T13:23:08;31.88;;;16.83;;
12112;SDS011;6120;52.250;8.478;2024-02-14T13:25:35;29.40;;;16.02;;
12112;SDS011;6120;52.250;8.478;2024-02-14T13:28:04;31.08;;;17.13;;
12112;SDS011;6120;52.250;8.478;2024-02-14T13:30:32;37.30;;;19.65;;
12112;SDS011;6120;52.250;8.478;2024-02-14T13:32:59;38.03;;;19.30;;
12112;SDS011;6120;52.250;8.478;2024-02-14T13:35:26;38.38;;;19.88;;
12112;SDS011;6120;52.250;8.478;2024-02-14T13:37:54;41.72;;;21.73;;
12112;SDS011;6120;52.250;8.478;2024-02-14T13:40:22;40.75;;;22.15;;
12112;SDS011;6120;52.250;8.478;2024-02-14T13:42:50;47.97;;;22.55;;
12112;SDS011;6120;52.250;8.478;2024-02-14T13:45:16;51.45;;;24.88;;
12112;SDS011;6120;52.250;8.478;2024-02-14T13:47:43;54.38;;;25.67;;
12112;SDS011;6120;52.250;8.478;2024-02-14T13:50:11;51.77;;;24.83;;
12112;SDS011;6120;52.250;8.478;2024-02-14T13:52:38;55.20;;;27.50;;
12112;SDS011;6120;52.250;8.478;2024-02-14T13:55:05;62.38;;;28.85;;
12112;SDS011;6120;52.250;8.478;2024-02-14T13:57:37;72.15;;;29.90;;
12112;SDS011;6120;52.250;8.478;2024-02-14T14:00:07;67.32;;;28.27;;
12112;SDS011;6120;52.250;8.478;2024-02-14T14:02:38;67.20;;;30.85;;
12112;SDS011;6120;52.250;8.478;2024-02-14T14:05:09;70.90;;;30.60;;
12112;SDS011;6120;52.250;8.478;2024-02-14T14:07:37;68.35;;;31.65;;
12112;SDS011;6120;52.250;8.478;2024-02-14T14:10:22;64.20;;;30.58;;
12112;SDS011;6120;52.250;8.478;2024-02-14T14:12:52;64.88;;;31.35;;
12112;SDS011;6120;52.250;8.478;2024-02-14T14:15:19;72.55;;;30.20;;
12112;SDS011;6120;52.250;8.478;2024-02-14T14:17:46;62.80;;;30.23;;
12112;SDS011;6120;52.250;8.478;2024-02-14T14:20:13;68.32;;;30.08;;
12112;SDS011;6120;52.250;8.478;2024-02-14T14:22:40;62.72;;;29.63;;
12112;SDS011;6120;52.250;8.478;2024-02-14T14:25:07;73.60;;;31.70;;
12112;SDS011;6120;52.250;8.478;2024-02-14T14:27:35;68.50;;;31.17;;
12112;SDS011;6120;52.250;8.478;2024-02-14T14:30:01;63.47;;;28.98;;
12112;SDS011;6120;52.250;8.478;2024-02-14T14:32:29;73.15;;;31.77;;
12112;SDS011;6120;52.250;8.478;2024-02-14T14:34:56;75.47;;;30.13;;
12112;SDS011;6120;52.250;8.478;2024-02-14T14:37:23;82.03;;;33.33;;
12112;SDS011;6120;52.250;8.478;2024-02-14T14:39:50;71.78;;;31.52;;
12112;SDS011;6120;52.250;8.478;2024-02-14T14:42:17;71.30;;;31.63;;
12112;SDS011;6120;52.250;8.478;2024-02-14T14:44:44;70.68;;;30.92;;
12112;SDS011;6120;52.250;8.478;2024-02-14T14:47:11;61.00;;;29.90;;
12112;SDS011;6120;52.250;8.478;2024-02-14T14:49:38;62.58;;;30.58;;
12112;SDS011;6120;52.250;8.478;2024-02-14T14:52:05;68.57;;;29.67;;
12112;SDS011;6120;52.250;8.478;2024-02-14T14:54:32;70.38;;;30.85;;
12112;SDS011;6120;52.250;8.478;2024-02-14T14:56:59;63.90;;;27.80;;
12112;SDS011;6120;52.250;8.478;2024-02-14T14:59:30;54.42;;;26.30;;